aviador You're here:

KPNE Decoded Metar

PHILADELPHIA in PA, USA
Report Time2017-09-21 20:54:00
UTC Time2017-09-21 21:19:00
Flight Rules vfr VFR
Wind350° at 10 kt
W.Decomp.*RWY 33: 8.5 kt HW 5.3 kt RCW
RWY 06: 5.3 kt HW 8.5 kt LCW
W.Rank350° ranks 17
Current wind is above 350° avg. (8.4)
Visibility9999 m
Phenomena:N/A
Clouds:N/A
Expected CloudBase > 4,800 ft AGL from Temp-Dew spread
CeilingNone
Temp29°C (ISA +14)
Dew Point17°C (48% RH)
Heat Index29.4°C
AAT27.7°C
QNH1016 hPa
Density Alt1,877 ft
Elevation92 ft
Report Wrong Elevation
Raw Report
KPNE 212054Z 35010KT 10SM CLR 29/17 A3001 RMK AO2 SLP159 T02890167
55001=

Extra information for KPNE:More info

Metar Taf Metar & Taf Last 4 Metars F.Rules Stats Wind Profile Meteogram Temp Stats Airport Information Weather charts Add Link Nearby VenuesMetar ALERT Operation Metar Decoded Social comments

AIRNAV info for KPNE